Time;durP1;ratioP1;P1;durP2;ratioP2;P2;SDS_P1;SDS_P2;PMS_P1;PMS_P2;Temp;Humidity;BMP_temperature;BMP_pressure;BME280_temperature;BME280_humidity;BME280_pressure;Samples;Min_cycle;Max_cycle;Signal;HPM_P1;HPM_P2
2022/02/14 00:02:25;;;;;;;12.38;6.75;;;;;;;;;;6211369;23;20397;-84
2022/02/14 00:04:51;;;;;;;11.30;6.57;;;;;;;;;;6187067;23;20029;-84
2022/02/14 00:07:16;;;;;;;10.93;6.60;;;;;;;;;;6211881;23;20362;-84
2022/02/14 00:09:42;;;;;;;13.38;6.25;;;;;;;;;;6186969;23;20024;-84
2022/02/14 00:12:08;;;;;;;13.05;7.50;;;;;;;;;;6211511;23;20395;-84
2022/02/14 00:14:34;;;;;;;14.80;6.95;;;;;;;;;;6185979;23;20012;-84
2022/02/14 00:16:59;;;;;;;14.82;6.85;;;;;;;;;;6186434;23;20404;-84
2022/02/14 00:19:25;;;;;;;10.48;6.47;;;;;;;;;;6211482;23;20118;-84
2022/02/14 00:21:51;;;;;;;9.02;5.88;;;;;;;;;;6216404;22;20292;-84
2022/02/14 00:24:16;;;;;;;8.38;6.38;;;;;;;;;;6213317;23;20024;-84
2022/02/14 00:26:42;;;;;;;13.10;6.82;;;;;;;;;;6213445;23;20091;-84
2022/02/14 00:29:08;;;;;;;10.07;6.47;;;;;;;;;;6187250;23;20020;-84
2022/02/14 00:31:34;;;;;;;12.85;6.65;;;;;;;;;;6186791;23;20020;-84
2022/02/14 00:34:00;;;;;;;11.65;6.43;;;;;;;;;;6161588;22;20028;-84
2022/02/14 00:36:26;;;;;;;9.80;6.25;;;;;;;;;;6187917;23;20327;-84
2022/02/14 00:38:52;;;;;;;12.32;6.90;;;;;;;;;;6190985;22;20096;-84
2022/02/14 00:41:17;;;;;;;9.45;6.35;;;;;;;;;;6182958;23;20525;-84
2022/02/14 00:43:43;;;;;;;10.13;6.47;;;;;;;;;;6205512;23;20047;-84
2022/02/14 00:46:09;;;;;;;11.02;6.97;;;;;;;;;;6156667;23;20020;-84
2022/02/14 00:48:35;;;;;;;11.27;7.00;;;;;;;;;;6182225;23;20383;-84
2022/02/14 00:51:00;;;;;;;14.48;6.88;;;;;;;;;;6180839;23;20029;-84
2022/02/14 00:53:26;;;;;;;11.55;7.18;;;;;;;;;;6181101;23;20024;-84
2022/02/14 00:55:52;;;;;;;11.77;6.65;;;;;;;;;;6156071;23;20008;-84
2022/02/14 00:58:18;;;;;;;11.73;6.30;;;;;;;;;;6180912;23;20013;-84
2022/02/14 01:00:44;;;;;;;10.02;6.50;;;;;;;;;;6155720;23;20112;-84
2022/02/14 01:03:10;;;;;;;10.68;6.13;;;;;;;;;;6156392;23;20021;-84
2022/02/14 01:05:36;;;;;;;12.63;6.80;;;;;;;;;;6156369;23;20017;-84
2022/02/14 01:08:02;;;;;;;10.13;5.93;;;;;;;;;;6179904;23;20048;-84
2022/02/14 01:10:28;;;;;;;10.27;5.88;;;;;;;;;;6179739;23;20027;-84
2022/02/14 01:12:53;;;;;;;10.02;5.88;;;;;;;;;;6154250;23;20025;-84
2022/02/14 01:15:19;;;;;;;13.27;5.78;;;;;;;;;;6155342;23;20126;-84
2022/02/14 01:17:45;;;;;;;12.05;5.82;;;;;;;;;;6154588;23;20039;-84
2022/02/14 01:20:12;;;;;;;11.35;6.38;;;;;;;;;;6155942;23;20342;-83
2022/02/14 01:22:38;;;;;;;9.63;5.63;;;;;;;;;;6181300;23;20047;-84
2022/02/14 01:25:04;;;;;;;7.55;5.38;;;;;;;;;;6182789;23;20084;-84
2022/02/14 01:27:30;;;;;;;8.98;6.13;;;;;;;;;;6206250;23;20024;-84
2022/02/14 01:29:56;;;;;;;16.23;6.13;;;;;;;;;;6183532;23;20028;-84
2022/02/14 01:32:23;;;;;;;10.07;5.82;;;;;;;;;;6183177;23;20024;-84
2022/02/14 01:34:53;;;;;;;12.00;5.97;;;;;;;;;;6158384;23;20023;-84
2022/02/14 01:37:19;;;;;;;8.07;5.10;;;;;;;;;;6206588;23;20019;-84
2022/02/14 01:39:45;;;;;;;9.38;5.35;;;;;;;;;;6156931;23;20092;-84
2022/02/14 01:42:11;;;;;;;9.77;5.72;;;;;;;;;;6157975;23;20012;-84
2022/02/14 01:44:39;;;;;;;12.68;6.22;;;;;;;;;;6182565;23;20166;-84
2022/02/14 01:47:10;;;;;;;10.60;5.68;;;;;;;;;;6232717;23;20454;-84
2022/02/14 01:49:35;;;;;;;8.43;5.30;;;;;;;;;;6181936;23;20024;-84
2022/02/14 01:52:01;;;;;;;6.25;5.10;;;;;;;;;;6182894;23;20179;-84
2022/02/14 01:54:27;;;;;;;9.07;5.85;;;;;;;;;;6182679;23;20019;-84
2022/02/14 01:56:52;;;;;;;10.30;5.85;;;;;;;;;;6182469;23;20280;-84
2022/02/14 01:59:18;;;;;;;12.02;6.25;;;;;;;;;;6157624;23;20047;-84
2022/02/14 02:01:44;;;;;;;8.05;6.05;;;;;;;;;;6182369;23;20083;-84
2022/02/14 02:04:13;;;;;;;8.95;5.57;;;;;;;;;;6183123;23;20024;-84
2022/02/14 02:06:39;;;;;;;10.65;5.65;;;;;;;;;;6212780;23;20466;-84
2022/02/14 02:09:05;;;;;;;8.57;5.82;;;;;;;;;;6213940;23;20516;-83
2022/02/14 02:14:20;;;;;;;10.70;5.80;;;;;;;;;;6216180;23;20099;-84
2022/02/14 02:16:46;;;;;;;11.20;5.95;;;;;;;;;;6186727;23;20027;-84
2022/02/14 02:19:11;;;;;;;9.80;5.88;;;;;;;;;;6213661;22;20024;-83
2022/02/14 02:21:37;;;;;;;9.50;5.50;;;;;;;;;;6188941;23;20028;-84
2022/02/14 02:24:04;;;;;;;10.02;6.03;;;;;;;;;;6212737;23;20020;-84
2022/02/14 02:26:31;;;;;;;8.75;5.65;;;;;;;;;;6207598;23;20018;-84
2022/02/14 02:28:57;;;;;;;9.98;5.25;;;;;;;;;;6181155;23;20013;-84
2022/02/14 02:31:23;;;;;;;10.18;5.55;;;;;;;;;;6183743;23;20516;-84
2022/02/14 02:33:51;;;;;;;8.30;5.43;;;;;;;;;;6182495;23;20020;-84
2022/02/14 02:36:17;;;;;;;12.70;6.00;;;;;;;;;;6158172;23;20349;-84
2022/02/14 02:38:43;;;;;;;9.00;5.82;;;;;;;;;;6207197;23;20078;-84
2022/02/14 02:41:08;;;;;;;11.35;5.47;;;;;;;;;;6183004;23;20078;-84
2022/02/14 02:43:34;;;;;;;10.60;5.85;;;;;;;;;;6181889;23;20020;-84
2022/02/14 02:46:00;;;;;;;9.85;5.90;;;;;;;;;;6181910;23;20071;-84
2022/02/14 02:48:25;;;;;;;9.88;5.75;;;;;;;;;;6181996;23;20043;-84
2022/02/14 02:51:05;;;;;;;9.20;6.38;;;;;;;;;;6182289;23;20016;-84
2022/02/14 02:53:32;;;;;;;9.25;5.88;;;;;;;;;;6160227;23;20020;-84
2022/02/14 02:55:58;;;;;;;11.48;6.32;;;;;;;;;;6232567;23;20110;-84
2022/02/14 02:58:25;;;;;;;10.20;5.43;;;;;;;;;;6181738;23;20082;-84
2022/02/14 03:00:50;;;;;;;10.30;5.72;;;;;;;;;;6182208;23;20044;-83
2022/02/14 03:03:16;;;;;;;13.38;6.50;;;;;;;;;;6157032;23;20016;-84
2022/02/14 03:05:42;;;;;;;10.80;5.95;;;;;;;;;;6157023;23;20021;-84
2022/02/14 03:08:07;;;;;;;10.85;5.97;;;;;;;;;;6186144;23;20084;-84
2022/02/14 03:10:33;;;;;;;8.07;5.68;;;;;;;;;;6210502;23;20279;-83
2022/02/14 03:12:59;;;;;;;13.50;6.10;;;;;;;;;;6211242;23;20104;-84
2022/02/14 03:15:25;;;;;;;11.35;6.15;;;;;;;;;;6185472;23;20024;-84
2022/02/14 03:17:50;;;;;;;11.57;6.55;;;;;;;;;;6211519;23;20408;-84
2022/02/14 03:20:17;;;;;;;9.13;5.43;;;;;;;;;;6209866;23;20024;-84
2022/02/14 03:22:42;;;;;;;9.82;6.00;;;;;;;;;;6211918;23;20064;-83
2022/02/14 03:25:08;;;;;;;12.20;6.05;;;;;;;;;;6186632;23;20020;-83
2022/02/14 03:27:34;;;;;;;9.55;5.70;;;;;;;;;;6210468;23;20020;-84
2022/02/14 03:30:00;;;;;;;10.57;6.30;;;;;;;;;;6211761;23;20020;-84
2022/02/14 03:32:25;;;;;;;11.63;5.93;;;;;;;;;;6210118;23;20023;-83
2022/02/14 03:34:51;;;;;;;7.38;5.28;;;;;;;;;;6185793;23;20466;-83
2022/02/14 03:37:17;;;;;;;9.40;5.38;;;;;;;;;;6210959;22;20031;-83
2022/02/14 03:39:43;;;;;;;9.18;5.38;;;;;;;;;;6211496;22;20260;-83
2022/02/14 03:42:09;;;;;;;9.75;5.65;;;;;;;;;;6211435;23;20016;-84
2022/02/14 03:44:35;;;;;;;8.73;5.30;;;;;;;;;;6187086;23;20020;-84
2022/02/14 03:47:00;;;;;;;10.55;5.55;;;;;;;;;;6210988;23;20020;-83
2022/02/14 03:49:26;;;;;;;9.90;6.05;;;;;;;;;;6208967;23;20086;-83
2022/02/14 03:51:52;;;;;;;9.93;6.63;;;;;;;;;;6211771;23;20236;-83
2022/02/14 03:54:18;;;;;;;11.20;5.82;;;;;;;;;;6237410;23;20020;-82
2022/02/14 03:56:43;;;;;;;9.50;5.43;;;;;;;;;;6213022;23;20019;-82
2022/02/14 03:59:09;;;;;;;9.77;6.38;;;;;;;;;;6237730;23;20404;-83
2022/02/14 04:01:35;;;;;;;9.57;6.07;;;;;;;;;;6212303;23;20474;-83
2022/02/14 04:04:01;;;;;;;10.13;5.68;;;;;;;;;;6187914;23;20283;-83
2022/02/14 04:06:27;;;;;;;9.27;4.90;;;;;;;;;;6212304;23;20020;-83
2022/02/14 04:08:53;;;;;;;9.13;4.93;;;;;;;;;;6212255;23;20432;-83
2022/02/14 04:11:19;;;;;;;9.75;5.25;;;;;;;;;;6212855;23;20024;-83
2022/02/14 04:13:44;;;;;;;9.80;5.38;;;;;;;;;;6213915;22;20461;-83
2022/02/14 04:16:10;;;;;;;11.98;5.40;;;;;;;;;;6214094;22;20031;-83
2022/02/14 04:18:36;;;;;;;8.18;5.30;;;;;;;;;;6212770;23;20077;-83
2022/02/14 04:21:02;;;;;;;6.80;4.72;;;;;;;;;;6211016;23;20086;-83
2022/02/14 04:23:27;;;;;;;7.70;4.82;;;;;;;;;;6211895;22;20044;-83
2022/02/14 04:25:53;;;;;;;7.93;4.80;;;;;;;;;;6186679;23;20023;-83
2022/02/14 04:28:19;;;;;;;9.52;5.47;;;;;;;;;;6187126;23;20020;-83
2022/02/14 04:30:45;;;;;;;9.20;5.15;;;;;;;;;;6186409;23;20284;-83
2022/02/14 04:33:11;;;;;;;9.85;5.50;;;;;;;;;;6187102;23;20020;-83
2022/02/14 04:35:37;;;;;;;7.40;4.82;;;;;;;;;;6211615;23;20024;-83
2022/02/14 04:38:03;;;;;;;8.05;4.82;;;;;;;;;;6212419;23;20051;-83
2022/02/14 04:40:35;;;;;;;7.55;5.30;;;;;;;;;;6186791;23;20020;-83
2022/02/14 04:43:01;;;;;;;10.32;5.15;;;;;;;;;;6211335;23;20024;-83
2022/02/14 04:45:28;;;;;;;8.10;4.72;;;;;;;;;;6211215;23;20449;-82
2022/02/14 04:47:54;;;;;;;8.07;4.65;;;;;;;;;;6186651;23;20012;-83
2022/02/14 04:50:21;;;;;;;10.38;5.38;;;;;;;;;;6186795;23;20020;-82
2022/02/14 04:52:47;;;;;;;10.00;4.68;;;;;;;;;;6185959;23;20039;-83
2022/02/14 04:55:13;;;;;;;9.73;4.88;;;;;;;;;;6213630;23;20020;-82
2022/02/14 04:57:38;;;;;;;7.10;5.07;;;;;;;;;;6186443;23;20055;-83
2022/02/14 05:00:09;;;;;;;12.13;5.35;;;;;;;;;;6211236;23;20015;-83
2022/02/14 05:02:35;;;;;;;8.30;4.75;;;;;;;;;;6214961;23;20020;-82
2022/02/14 05:05:01;;;;;;;8.43;5.18;;;;;;;;;;6186164;23;20020;-83
2022/02/14 05:07:26;;;;;;;11.45;5.82;;;;;;;;;;6184257;23;20287;-82
2022/02/14 05:09:55;;;;;;;9.35;4.85;;;;;;;;;;6182137;23;20051;-81
2022/02/14 05:12:20;;;;;;;15.05;5.82;;;;;;;;;;6179862;23;20099;-81
2022/02/14 05:14:46;;;;;;;9.23;5.57;;;;;;;;;;6206122;23;20409;-81
2022/02/14 05:17:12;;;;;;;10.18;5.72;;;;;;;;;;6183207;23;20083;-82
2022/02/14 05:19:38;;;;;;;12.10;6.03;;;;;;;;;;6181507;23;20091;-82
2022/02/14 05:22:04;;;;;;;8.98;5.20;;;;;;;;;;6181970;23;20087;-81
2022/02/14 05:24:29;;;;;;;9.27;5.90;;;;;;;;;;6206545;23;20157;-82
2022/02/14 05:26:55;;;;;;;9.07;4.95;;;;;;;;;;6181735;23;20017;-82
2022/02/14 05:29:21;;;;;;;9.60;5.47;;;;;;;;;;6207257;23;20395;-82
2022/02/14 05:31:46;;;;;;;11.23;5.55;;;;;;;;;;6181345;23;20024;-81
2022/02/14 05:34:12;;;;;;;8.20;5.07;;;;;;;;;;6182206;23;20031;-82
2022/02/14 05:36:41;;;;;;;11.38;5.90;;;;;;;;;;6206397;23;20502;-82
2022/02/14 05:39:07;;;;;;;10.75;5.93;;;;;;;;;;6182807;23;20019;-82
2022/02/14 05:41:33;;;;;;;10.90;5.88;;;;;;;;;;6157526;23;20459;-82
2022/02/14 05:44:01;;;;;;;7.35;5.07;;;;;;;;;;6179694;23;20686;-82
2022/02/14 05:46:27;;;;;;;9.90;6.07;;;;;;;;;;6182159;23;20092;-82
2022/02/14 05:48:53;;;;;;;7.80;5.70;;;;;;;;;;6156867;23;20019;-82
2022/02/14 05:51:18;;;;;;;10.35;5.45;;;;;;;;;;6181180;23;20016;-79
2022/02/14 05:53:44;;;;;;;8.57;5.65;;;;;;;;;;6178269;23;20028;-79
2022/02/14 05:56:10;;;;;;;9.00;5.68;;;;;;;;;;6180240;23;20508;-80
2022/02/14 05:58:36;;;;;;;7.32;4.82;;;;;;;;;;6180216;23;20051;-79
2022/02/14 06:01:02;;;;;;;8.00;5.13;;;;;;;;;;6179941;23;20024;-81
2022/02/14 06:03:27;;;;;;;8.27;5.47;;;;;;;;;;6180474;23;20027;-81
2022/02/14 06:05:53;;;;;;;11.20;5.38;;;;;;;;;;6155497;23;20016;-81
2022/02/14 06:08:19;;;;;;;8.48;5.43;;;;;;;;;;6155174;23;20465;-82
2022/02/14 06:10:45;;;;;;;7.00;5.05;;;;;;;;;;6179915;23;20028;-80
2022/02/14 06:13:10;;;;;;;8.85;5.03;;;;;;;;;;6180203;23;20021;-80
2022/02/14 06:15:36;;;;;;;10.85;5.07;;;;;;;;;;6180516;23;20017;-80
2022/02/14 06:18:02;;;;;;;9.77;5.10;;;;;;;;;;6179805;23;20020;-81
2022/02/14 06:20:27;;;;;;;5.80;4.70;;;;;;;;;;6178978;23;20467;-81
2022/02/14 06:22:53;;;;;;;7.32;4.07;;;;;;;;;;6206618;23;20016;-80
2022/02/14 06:25:19;;;;;;;7.07;5.18;;;;;;;;;;6179754;23;20079;-80
2022/02/14 06:27:45;;;;;;;6.75;4.93;;;;;;;;;;6154518;23;20409;-80
2022/02/14 06:30:11;;;;;;;9.35;5.50;;;;;;;;;;6180670;23;20021;-80
2022/02/14 06:32:37;;;;;;;9.68;5.10;;;;;;;;;;6154975;23;20036;-82
2022/02/14 06:35:04;;;;;;;8.45;5.47;;;;;;;;;;6154496;23;20051;-80
2022/02/14 06:37:29;;;;;;;11.88;5.22;;;;;;;;;;6180340;23;20020;-80
2022/02/14 06:39:55;;;;;;;8.80;5.47;;;;;;;;;;6155166;23;20107;-80
2022/02/14 06:42:21;;;;;;;8.48;5.43;;;;;;;;;;6179191;23;20047;-80
2022/02/14 06:44:47;;;;;;;8.60;4.70;;;;;;;;;;6178668;23;20020;-79
2022/02/14 06:47:14;;;;;;;6.95;5.18;;;;;;;;;;6156643;23;20075;-81
2022/02/14 06:49:39;;;;;;;8.30;5.32;;;;;;;;;;6186995;23;20028;-81
2022/02/14 06:52:05;;;;;;;6.75;4.35;;;;;;;;;;6177095;23;20024;-81
2022/02/14 06:54:31;;;;;;;8.32;4.95;;;;;;;;;;6178919;23;20020;-81
2022/02/14 06:56:57;;;;;;;9.82;5.47;;;;;;;;;;6180659;23;20028;-80
2022/02/14 06:59:22;;;;;;;8.80;5.47;;;;;;;;;;6179754;23;20078;-82
2022/02/14 07:01:48;;;;;;;11.32;4.43;;;;;;;;;;6155559;23;20078;-81
2022/02/14 07:04:14;;;;;;;9.85;5.82;;;;;;;;;;6204073;23;20024;-81
2022/02/14 07:06:40;;;;;;;8.55;4.82;;;;;;;;;;6185045;22;20075;-82
2022/02/14 07:09:05;;;;;;;11.50;5.65;;;;;;;;;;6181687;23;20099;-80
2022/02/14 07:11:31;;;;;;;8.82;4.75;;;;;;;;;;6208168;23;20024;-80
2022/02/14 07:13:57;;;;;;;10.50;5.35;;;;;;;;;;6155178;23;20028;-80
2022/02/14 07:16:23;;;;;;;7.00;4.63;;;;;;;;;;6199096;22;20058;-80
2022/02/14 07:18:48;;;;;;;14.77;5.32;;;;;;;;;;6213605;23;20086;-80
2022/02/14 07:21:15;;;;;;;10.68;5.57;;;;;;;;;;6206609;23;20020;-80
2022/02/14 07:23:41;;;;;;;11.27;4.50;;;;;;;;;;6178586;23;20250;-79
2022/02/14 07:26:07;;;;;;;9.60;4.18;;;;;;;;;;6178007;23;20179;-80
2022/02/14 07:28:33;;;;;;;8.52;5.45;;;;;;;;;;6207743;23;20020;-80
2022/02/14 07:30:59;;;;;;;8.20;4.93;;;;;;;;;;6207569;23;20135;-80
2022/02/14 07:33:24;;;;;;;8.20;5.07;;;;;;;;;;6203713;23;20421;-82
2022/02/14 07:35:50;;;;;;;9.80;5.00;;;;;;;;;;6228098;23;20020;-82
2022/02/14 07:38:16;;;;;;;12.85;5.30;;;;;;;;;;6178888;23;20055;-80
2022/02/14 07:40:42;;;;;;;10.30;5.75;;;;;;;;;;6202406;23;20020;-81
2022/02/14 07:43:07;;;;;;;8.98;5.30;;;;;;;;;;6201891;23;20020;-80
2022/02/14 07:45:33;;;;;;;8.60;4.10;;;;;;;;;;6203248;23;20104;-81
2022/02/14 07:47:59;;;;;;;9.40;5.57;;;;;;;;;;6177249;23;20344;-81
2022/02/14 07:50:25;;;;;;;7.25;4.90;;;;;;;;;;6203068;23;20086;-81
2022/02/14 07:52:51;;;;;;;9.10;5.00;;;;;;;;;;6178645;23;20020;-81
2022/02/14 07:55:17;;;;;;;8.48;4.80;;;;;;;;;;6202874;23;20026;-81
2022/02/14 07:57:43;;;;;;;8.77;4.57;;;;;;;;;;6178840;23;20020;-82
2022/02/14 08:00:09;;;;;;;10.38;5.13;;;;;;;;;;6203298;23;20361;-82
2022/02/14 08:02:35;;;;;;;6.60;3.78;;;;;;;;;;6154266;23;20024;-83
2022/02/14 08:05:01;;;;;;;7.15;4.88;;;;;;;;;;6206893;23;20103;-81
2022/02/14 08:07:26;;;;;;;8.18;4.65;;;;;;;;;;6205186;23;20069;-81
2022/02/14 08:09:52;;;;;;;8.90;4.45;;;;;;;;;;6204184;23;20029;-81
2022/02/14 08:12:20;;;;;;;6.32;4.05;;;;;;;;;;6204580;23;20193;-82
2022/02/14 08:14:47;;;;;;;10.80;4.93;;;;;;;;;;6204130;23;20048;-83
2022/02/14 08:17:13;;;;;;;8.82;4.32;;;;;;;;;;6205424;23;20028;-81
2022/02/14 08:19:38;;;;;;;13.80;5.30;;;;;;;;;;6202782;23;20043;-81
2022/02/14 08:22:05;;;;;;;7.43;4.68;;;;;;;;;;6204324;23;20025;-81
2022/02/14 08:24:30;;;;;;;10.15;5.57;;;;;;;;;;6203353;23;20051;-82
2022/02/14 08:26:56;;;;;;;9.15;5.18;;;;;;;;;;6163102;23;20017;-82
2022/02/14 08:29:22;;;;;;;8.00;4.63;;;;;;;;;;6162097;22;20036;-82
2022/02/14 08:31:47;;;;;;;9.65;4.68;;;;;;;;;;6161550;23;20450;-82
2022/02/14 08:34:14;;;;;;;8.55;5.32;;;;;;;;;;6154725;23;20079;-82
2022/02/14 08:36:40;;;;;;;6.85;4.65;;;;;;;;;;6178175;23;20027;-82
2022/02/14 08:39:06;;;;;;;8.63;4.68;;;;;;;;;;6181531;23;20016;-82
2022/02/14 08:41:32;;;;;;;8.05;2.80;;;;;;;;;;6179579;23;20016;-82
2022/02/14 08:43:59;;;;;;;9.82;5.13;;;;;;;;;;6202420;23;20117;-83
2022/02/14 08:46:25;;;;;;;7.82;4.63;;;;;;;;;;6153904;23;20021;-81
2022/02/14 08:48:53;;;;;;;8.23;4.63;;;;;;;;;;6153212;23;20088;-82
2022/02/14 08:51:19;;;;;;;7.20;4.88;;;;;;;;;;6227504;23;20363;-82
2022/02/14 08:53:46;;;;;;;7.45;4.82;;;;;;;;;;6202324;23;20013;-82
2022/02/14 08:56:12;;;;;;;5.82;4.50;;;;;;;;;;6177008;23;20026;-81
2022/02/14 08:58:39;;;;;;;6.90;4.88;;;;;;;;;;6201351;23;20387;-81
2022/02/14 09:01:05;;;;;;;9.75;5.10;;;;;;;;;;6152325;23;20021;-81
2022/02/14 09:03:31;;;;;;;6.75;3.70;;;;;;;;;;6150513;23;20513;-82
2022/02/14 09:05:57;;;;;;;6.85;4.30;;;;;;;;;;6152761;23;20020;-82
2022/02/14 09:08:24;;;;;;;8.13;4.45;;;;;;;;;;6146679;23;20024;-82
2022/02/14 09:10:50;;;;;;;5.95;4.00;;;;;;;;;;6178291;23;20017;-82
2022/02/14 09:13:16;;;;;;;6.13;3.95;;;;;;;;;;6202314;23;20023;-81
2022/02/14 09:15:42;;;;;;;5.72;2.88;;;;;;;;;;6180033;23;20402;-82
2022/02/14 09:18:07;;;;;;;6.40;4.05;;;;;;;;;;6155347;23;20082;-81
2022/02/14 09:20:33;;;;;;;6.00;4.32;;;;;;;;;;6180455;23;20447;-82
2022/02/14 09:23:00;;;;;;;7.80;5.00;;;;;;;;;;6178187;23;20028;-82
2022/02/14 09:25:26;;;;;;;6.20;3.40;;;;;;;;;;6179849;23;20053;-81
2022/02/14 09:27:52;;;;;;;7.68;5.78;;;;;;;;;;6177356;23;20013;-81
2022/02/14 09:30:18;;;;;;;7.90;4.50;;;;;;;;;;6227343;23;20328;-81
2022/02/14 09:32:44;;;;;;;7.07;3.90;;;;;;;;;;6152570;23;20557;-81
2022/02/14 09:35:10;;;;;;;6.90;4.65;;;;;;;;;;6178594;23;20053;-82
2022/02/14 09:37:36;;;;;;;6.80;4.22;;;;;;;;;;6178789;23;20024;-82
2022/02/14 09:40:03;;;;;;;7.15;4.50;;;;;;;;;;6177179;23;20051;-81
2022/02/14 09:42:29;;;;;;;7.60;3.90;;;;;;;;;;6152516;23;20035;-82
2022/02/14 09:44:56;;;;;;;8.38;3.90;;;;;;;;;;6179149;23;20017;-82
2022/02/14 09:47:25;;;;;;;8.80;4.22;;;;;;;;;;6181272;23;20059;-82
2022/02/14 09:49:53;;;;;;;7.97;4.50;;;;;;;;;;6205295;23;20051;-83
2022/02/14 09:52:19;;;;;;;5.70;4.38;;;;;;;;;;6179125;23;20051;-84
2022/02/14 09:54:45;;;;;;;6.32;3.38;;;;;;;;;;6180977;23;20046;-83
2022/02/14 09:57:12;;;;;;;8.20;4.35;;;;;;;;;;6155749;23;20493;-84
2022/02/14 09:59:37;;;;;;;7.10;4.20;;;;;;;;;;6182142;23;20021;-83
2022/02/14 10:02:20;;;;;;;7.28;4.22;;;;;;;;;;6181751;23;20086;-82
2022/02/14 10:05:06;;;;;;;8.88;4.07;;;;;;;;;;6165366;23;20013;-83
2022/02/14 10:07:38;;;;;;;7.35;4.03;;;;;;;;;;6179633;22;20385;-82
2022/02/14 10:10:11;;;;;;;6.43;4.00;;;;;;;;;;6208782;23;20059;-82
2022/02/14 10:12:42;;;;;;;6.18;3.92;;;;;;;;;;6205568;23;20103;-82
2022/02/14 10:15:09;;;;;;;7.60;4.00;;;;;;;;;;6231921;22;20024;-82
2022/02/14 10:17:46;;;;;;;11.43;5.43;;;;;;;;;;6156529;23;20039;-83
2022/02/14 10:20:17;;;;;;;9.30;3.90;;;;;;;;;;6230114;22;20092;-84
2022/02/14 10:23:00;;;;;;;7.10;3.92;;;;;;;;;;6193294;23;20067;-82
2022/02/14 10:25:32;;;;;;;5.90;3.92;;;;;;;;;;6187698;23;20084;-83
2022/02/14 10:28:18;;;;;;;7.03;3.85;;;;;;;;;;6170288;23;20307;-82
2022/02/14 10:30:59;;;;;;;7.15;3.42;;;;;;;;;;6184898;23;20455;-83
2022/02/14 10:33:54;;;;;;;9.18;3.78;;;;;;;;;;6206223;23;20354;-82
2022/02/14 10:36:27;;;;;;;7.32;3.95;;;;;;;;;;6185563;23;20078;-82
2022/02/14 10:39:05;;;;;;;6.82;3.85;;;;;;;;;;6213607;23;20457;-84
2022/02/14 10:41:31;;;;;;;6.50;3.70;;;;;;;;;;6210505;23;20098;-82
2022/02/14 10:44:08;;;;;;;5.57;3.75;;;;;;;;;;6183234;23;20085;-82
2022/02/14 10:46:34;;;;;;;5.40;3.53;;;;;;;;;;6199651;23;20361;-83
2022/02/14 10:49:01;;;;;;;6.05;3.47;;;;;;;;;;6163962;22;20422;-83
2022/02/14 10:51:26;;;;;;;6.85;3.70;;;;;;;;;;6153763;23;20016;-83
2022/02/14 10:53:54;;;;;;;9.02;4.30;;;;;;;;;;6199553;22;20064;-83
2022/02/14 10:56:20;;;;;;;6.25;3.65;;;;;;;;;;6154205;23;20020;-83
2022/02/14 10:58:47;;;;;;;4.57;3.25;;;;;;;;;;6204915;23;20078;-82
2022/02/14 11:01:14;;;;;;;8.63;4.13;;;;;;;;;;6160440;23;20039;-83
2022/02/14 11:03:41;;;;;;;3.78;3.35;;;;;;;;;;6179642;23;20016;-83
2022/02/14 11:06:09;;;;;;;7.25;3.63;;;;;;;;;;6184990;23;20338;-83
2022/02/14 11:08:36;;;;;;;5.78;4.07;;;;;;;;;;6182603;23;20876;-83
2022/02/14 11:11:04;;;;;;;5.78;4.15;;;;;;;;;;6206436;23;20028;-83
2022/02/14 11:13:31;;;;;;;5.13;3.63;;;;;;;;;;6184635;23;20031;-83
2022/02/14 11:15:58;;;;;;;5.32;3.60;;;;;;;;;;6209298;23;20044;-83
2022/02/14 11:18:31;;;;;;;4.95;2.97;;;;;;;;;;6208093;23;20375;-82
2022/02/14 11:20:59;;;;;;;6.18;3.35;;;;;;;;;;6183913;23;20023;-83
2022/02/14 11:23:27;;;;;;;4.03;3.17;;;;;;;;;;6209667;23;20418;-82
2022/02/14 11:26:02;;;;;;;6.18;3.70;;;;;;;;;;6185094;23;20020;-82
2022/02/14 11:28:33;;;;;;;7.03;3.30;;;;;;;;;;6183553;23;20046;-83
2022/02/14 11:31:15;;;;;;;4.88;3.40;;;;;;;;;;6181080;23;20495;-82
2022/02/14 11:33:43;;;;;;;7.00;3.13;;;;;;;;;;6209796;23;20606;-83
2022/02/14 11:36:12;;;;;;;4.55;3.20;;;;;;;;;;6208755;23;20040;-82
2022/02/14 11:38:48;;;;;;;8.00;3.78;;;;;;;;;;6182913;23;20077;-82
2022/02/14 11:41:29;;;;;;;4.32;3.22;;;;;;;;;;6206962;23;20406;-83
2022/02/14 11:44:17;;;;;;;5.15;2.95;;;;;;;;;;6207468;23;20027;-84
2022/02/14 11:47:09;;;;;;;4.63;3.42;;;;;;;;;;6209430;23;20068;-86
2022/02/14 11:49:38;;;;;;;5.30;3.38;;;;;;;;;;6180867;23;20016;-85
2022/02/14 11:52:09;;;;;;;8.80;3.22;;;;;;;;;;6209372;23;20629;-85
2022/02/14 11:54:42;;;;;;;4.40;3.38;;;;;;;;;;6211979;23;20070;-85
2022/02/14 11:57:31;;;;;;;9.05;3.78;;;;;;;;;;6185452;23;20016;-86
2022/02/14 12:00:15;;;;;;;4.82;3.20;;;;;;;;;;6185674;23;20060;-84
2022/02/14 12:02:43;;;;;;;6.88;3.72;;;;;;;;;;6211926;23;20845;-84
2022/02/14 12:05:10;;;;;;;4.93;3.65;;;;;;;;;;6208333;23;20020;-85
2022/02/14 12:07:37;;;;;;;6.43;3.72;;;;;;;;;;6185908;23;20039;-85
2022/02/14 12:10:11;;;;;;;6.30;3.70;;;;;;;;;;6183807;23;20028;-83
2022/02/14 12:12:46;;;;;;;4.95;2.88;;;;;;;;;;6208880;23;20038;-82
2022/02/14 12:20:42;;;;;;;8.73;3.53;;;;;;;;;;6215289;23;20027;-83
2022/02/14 12:23:08;;;;;;;8.82;4.03;;;;;;;;;;6184002;23;20465;-86
2022/02/14 12:25:37;;;;;;;4.63;3.67;;;;;;;;;;6183908;23;20024;-85
2022/02/14 12:28:07;;;;;;;5.22;3.63;;;;;;;;;;6210358;23;20020;-85
2022/02/14 12:30:33;;;;;;;5.85;3.20;;;;;;;;;;6205102;23;20027;-85
2022/02/14 12:33:06;;;;;;;5.95;3.00;;;;;;;;;;6183291;23;20016;-85
2022/02/14 12:35:34;;;;;;;6.28;3.38;;;;;;;;;;6187491;23;20337;-84
2022/02/14 12:38:01;;;;;;;5.50;3.30;;;;;;;;;;6209850;23;20055;-84
2022/02/14 12:40:49;;;;;;;6.75;3.05;;;;;;;;;;6182000;23;20071;-84
2022/02/14 12:43:28;;;;;;;5.13;2.83;;;;;;;;;;6209431;23;20358;-83
2022/02/14 12:46:01;;;;;;;4.90;3.20;;;;;;;;;;6183309;23;20717;-83
2022/02/14 12:48:31;;;;;;;5.57;3.20;;;;;;;;;;6208806;23;20020;-83
2022/02/14 12:50:58;;;;;;;7.53;3.92;;;;;;;;;;6232384;23;20035;-83
2022/02/14 12:53:24;;;;;;;6.30;3.80;;;;;;;;;;6184756;23;20026;-83
2022/02/14 12:55:51;;;;;;;5.72;3.42;;;;;;;;;;6208949;23;20023;-83
2022/02/14 12:58:17;;;;;;;5.20;2.90;;;;;;;;;;6208869;23;20032;-84
2022/02/14 13:00:43;;;;;;;4.38;3.20;;;;;;;;;;6203560;23;20362;-83
2022/02/14 13:03:13;;;;;;;6.82;3.40;;;;;;;;;;6208110;23;20032;-82
2022/02/14 13:05:40;;;;;;;4.65;3.20;;;;;;;;;;6210482;23;20027;-82
2022/02/14 13:08:29;;;;;;;5.07;2.88;;;;;;;;;;6182941;23;20016;-83
2022/02/14 13:10:56;;;;;;;6.35;3.25;;;;;;;;;;6210919;23;20027;-83
2022/02/14 13:13:29;;;;;;;10.75;3.28;;;;;;;;;;6207976;23;20497;-83
2022/02/14 13:15:58;;;;;;;6.22;3.22;;;;;;;;;;6208927;23;20020;-84
2022/02/14 13:18:47;;;;;;;6.45;3.10;;;;;;;;;;6205296;23;20453;-83
2022/02/14 13:21:19;;;;;;;5.28;3.13;;;;;;;;;;6182207;23;20046;-83
2022/02/14 13:23:45;;;;;;;6.22;3.35;;;;;;;;;;6184498;23;20012;-83
2022/02/14 13:26:27;;;;;;;4.90;2.80;;;;;;;;;;6209758;23;20305;-84
2022/02/14 13:28:53;;;;;;;4.97;3.05;;;;;;;;;;6180885;23;20309;-84
2022/02/14 13:31:23;;;;;;;5.20;2.97;;;;;;;;;;6207363;22;20317;-83
2022/02/14 13:33:51;;;;;;;8.25;3.00;;;;;;;;;;6180210;23;20019;-83
2022/02/14 13:36:18;;;;;;;7.95;3.10;;;;;;;;;;6181337;23;20111;-83
2022/02/14 13:38:43;;;;;;;4.82;2.70;;;;;;;;;;6181165;23;20020;-84
2022/02/14 13:41:10;;;;;;;4.53;2.80;;;;;;;;;;6206088;23;20408;-83
2022/02/14 13:43:41;;;;;;;5.97;3.17;;;;;;;;;;6181613;23;20015;-82
2022/02/14 13:46:08;;;;;;;5.43;3.35;;;;;;;;;;6207875;23;24825;-83
2022/02/14 13:48:47;;;;;;;5.95;3.22;;;;;;;;;;6207102;23;20020;-83
2022/02/14 13:51:17;;;;;;;5.10;3.25;;;;;;;;;;6208073;23;20402;-83
2022/02/14 13:53:52;;;;;;;4.75;3.33;;;;;;;;;;6237693;23;20054;-82
2022/02/14 13:56:20;;;;;;;6.70;3.38;;;;;;;;;;6182057;23;20176;-82
2022/02/14 13:58:50;;;;;;;7.30;3.50;;;;;;;;;;6208960;23;20012;-82
2022/02/14 14:01:35;;;;;;;6.07;3.28;;;;;;;;;;6207264;23;20449;-83
2022/02/14 14:04:22;;;;;;;5.88;3.00;;;;;;;;;;6207645;23;20048;-83
2022/02/14 14:06:51;;;;;;;3.40;2.97;;;;;;;;;;6208401;23;20054;-83
2022/02/14 14:09:18;;;;;;;5.53;3.15;;;;;;;;;;6182195;23;20023;-83
2022/02/14 14:11:45;;;;;;;8.02;3.38;;;;;;;;;;6196094;23;20031;-84
2022/02/14 14:14:29;;;;;;;7.82;3.40;;;;;;;;;;6183423;23;20316;-83
2022/02/14 14:16:55;;;;;;;5.55;3.58;;;;;;;;;;6180551;23;20016;-83
2022/02/14 14:19:21;;;;;;;5.38;3.80;;;;;;;;;;6182691;23;20503;-83
2022/02/14 14:21:46;;;;;;;5.20;3.88;;;;;;;;;;6185396;23;20028;-84
2022/02/14 14:24:12;;;;;;;8.20;3.92;;;;;;;;;;6185031;23;20365;-84
2022/02/14 14:26:38;;;;;;;5.78;3.95;;;;;;;;;;6197225;23;20024;-84
2022/02/14 14:29:03;;;;;;;8.02;4.30;;;;;;;;;;6178737;23;20155;-85
2022/02/14 14:31:29;;;;;;;4.50;3.60;;;;;;;;;;6179184;23;20079;-84
2022/02/14 14:33:55;;;;;;;5.85;3.58;;;;;;;;;;6178256;23;20078;-85
2022/02/14 14:36:21;;;;;;;7.55;4.15;;;;;;;;;;6153875;23;20136;-85
2022/02/14 14:38:48;;;;;;;6.38;3.78;;;;;;;;;;6157406;23;20012;-85
2022/02/14 14:41:13;;;;;;;6.07;3.85;;;;;;;;;;6217084;23;20484;-84
2022/02/14 14:43:42;;;;;;;7.05;2.88;;;;;;;;;;6188318;23;20490;-85
2022/02/14 14:46:08;;;;;;;4.25;3.28;;;;;;;;;;6212637;23;20024;-82
2022/02/14 14:48:34;;;;;;;5.65;3.33;;;;;;;;;;6183984;23;20026;-84
2022/02/14 14:51:00;;;;;;;5.80;3.40;;;;;;;;;;6233427;23;20025;-82
2022/02/14 14:53:26;;;;;;;4.13;3.00;;;;;;;;;;6210905;23;20016;-83